Time;durP1;ratioP1;P1;durP2;ratioP2;P2;SDS_P1;SDS_P2;PMS_P1;PMS_P2;Temp;Humidity;BMP_temperature;BMP_pressure;BME280_temperature;BME280_humidity;BME280_pressure;Samples;Min_cycle;Max_cycle;Signal;HPM_P1;HPM_P2
2021/04/29 00:01:06;;;;;;;13.43;6.50;;;9.70;60.60;;;;;;4998995;28;20064;-73
2021/04/29 00:03:35;;;;;;;11.45;5.95;;;9.80;60.80;;;;;;4999627;28;20058;-73
2021/04/29 00:06:02;;;;;;;10.02;6.20;;;9.70;60.90;;;;;;5010439;28;20026;-73
2021/04/29 00:08:28;;;;;;;8.60;5.75;;;9.60;61.10;;;;;;5010685;28;20087;-73
2021/04/29 00:10:53;;;;;;;10.05;6.22;;;9.60;61.30;;;;;;5027968;28;20470;-73
2021/04/29 00:13:19;;;;;;;13.00;6.40;;;9.50;61.40;;;;;;5069462;28;20103;-73
2021/04/29 00:15:47;;;;;;;10.73;6.88;;;9.50;61.70;;;;;;5001785;28;20030;-73
2021/04/29 00:18:13;;;;;;;10.65;5.80;;;9.50;62.10;;;;;;5004153;28;20466;-73
2021/04/29 00:20:38;;;;;;;13.95;6.63;;;9.50;62.00;;;;;;5010030;28;20030;-73
2021/04/29 00:23:04;;;;;;;12.15;6.80;;;9.50;62.40;;;;;;5011197;28;20032;-73
2021/04/29 00:25:30;;;;;;;13.18;7.25;;;9.40;62.50;;;;;;5012373;28;20104;-73
2021/04/29 00:27:55;;;;;;;11.32;6.63;;;9.40;62.60;;;;;;5007138;28;20026;-73
2021/04/29 00:30:21;;;;;;;11.38;6.65;;;9.30;62.70;;;;;;5008243;28;20023;-73
2021/04/29 00:32:46;;;;;;;10.82;6.88;;;9.30;62.90;;;;;;5008929;28;20538;-73
2021/04/29 00:35:12;;;;;;;11.50;6.68;;;9.20;63.10;;;;;;5009815;28;20037;-73
2021/04/29 00:37:38;;;;;;;12.98;7.10;;;9.20;63.40;;;;;;5009900;28;20022;-73
2021/04/29 00:40:05;;;;;;;10.13;6.32;;;9.20;63.60;;;;;;5004801;28;20029;-72
2021/04/29 00:42:34;;;;;;;12.90;7.13;;;9.10;63.80;;;;;;5001714;28;20463;-73
2021/04/29 00:44:59;;;;;;;12.35;7.35;;;9.10;64.00;;;;;;4996656;28;20125;-73
2021/04/29 00:47:25;;;;;;;14.40;7.00;;;9.00;64.30;;;;;;5001671;28;20639;-73
2021/04/29 00:49:51;;;;;;;14.30;7.35;;;9.00;64.40;;;;;;5003628;28;20094;-73
2021/04/29 00:52:17;;;;;;;11.02;7.63;;;9.00;64.70;;;;;;5006129;28;20114;-73
2021/04/29 00:54:42;;;;;;;13.65;5.95;;;9.00;64.80;;;;;;5002210;28;20018;-73
2021/04/29 00:57:08;;;;;;;11.73;7.15;;;9.00;64.80;;;;;;4996907;28;20033;-73
2021/04/29 00:59:33;;;;;;;12.55;6.78;;;9.00;64.80;;;;;;5000580;28;20084;-73
2021/04/29 01:02:02;;;;;;;14.88;7.38;;;9.00;65.10;;;;;;4993978;28;20046;-73
2021/04/29 01:04:41;;;;;;;14.25;7.88;;;8.90;65.30;;;;;;5004496;28;20023;-73
2021/04/29 01:07:09;;;;;;;13.35;7.85;;;8.90;65.50;;;;;;4999793;28;20120;-73
2021/04/29 01:09:40;;;;;;;12.02;6.97;;;8.80;65.70;;;;;;4999676;28;20054;-73
2021/04/29 01:12:23;;;;;;;13.70;7.38;;;8.70;65.90;;;;;;4994501;28;20050;-73
2021/04/29 01:14:50;;;;;;;12.80;7.70;;;8.60;66.30;;;;;;5000959;28;20026;-73
2021/04/29 01:17:17;;;;;;;12.77;8.75;;;8.60;66.80;;;;;;4997578;28;20033;-73
2021/04/29 01:19:45;;;;;;;13.52;7.72;;;8.50;67.00;;;;;;5005311;28;20481;-73
2021/04/29 01:22:14;;;;;;;11.43;7.00;;;8.40;67.40;;;;;;4996196;28;20043;-73
2021/04/29 01:24:50;;;;;;;14.93;8.07;;;8.40;67.80;;;;;;5003686;28;20029;-73
2021/04/29 01:27:18;;;;;;;13.10;8.02;;;8.30;68.00;;;;;;4993932;28;20026;-73
2021/04/29 01:29:44;;;;;;;14.25;8.20;;;8.30;68.30;;;;;;5002115;28;20079;-73
2021/04/29 01:32:10;;;;;;;12.20;7.60;;;8.30;68.60;;;;;;5000891;28;20061;-73
2021/04/29 01:34:37;;;;;;;14.30;8.25;;;8.30;68.80;;;;;;4999298;28;20500;-73
2021/04/29 01:37:04;;;;;;;13.95;7.95;;;8.20;68.90;;;;;;4998611;28;20026;-73
2021/04/29 01:39:30;;;;;;;10.73;7.03;;;8.20;69.20;;;;;;5000098;28;20022;-73
2021/04/29 01:41:56;;;;;;;11.95;7.82;;;8.20;69.30;;;;;;4999583;28;20033;-73
2021/04/29 01:44:23;;;;;;;15.75;7.75;;;8.20;69.40;;;;;;4994810;28;20026;-73
2021/04/29 01:46:49;;;;;;;14.48;8.93;;;8.20;69.50;;;;;;4997294;28;20485;-73
2021/04/29 01:49:15;;;;;;;13.40;8.18;;;8.20;69.60;;;;;;5002956;28;20050;-73
2021/04/29 01:51:41;;;;;;;10.85;7.35;;;8.30;69.70;;;;;;4996287;28;20098;-73
2021/04/29 01:54:10;;;;;;;14.73;8.27;;;8.30;69.80;;;;;;4998488;28;20030;-73
2021/04/29 01:56:36;;;;;;;13.70;8.52;;;8.30;69.90;;;;;;5001334;28;20033;-73
2021/04/29 01:59:04;;;;;;;31.10;9.77;;;8.30;70.10;;;;;;5000240;28;20080;-73
2021/04/29 02:01:30;;;;;;;13.80;7.53;;;8.40;70.30;;;;;;4998979;28;20026;-73
2021/04/29 02:03:55;;;;;;;14.20;8.90;;;8.40;70.40;;;;;;5001660;28;20018;-73
2021/04/29 02:06:22;;;;;;;15.98;9.13;;;8.50;70.50;;;;;;4997395;28;20389;-73
2021/04/29 02:08:47;;;;;;;13.52;8.88;;;8.50;70.50;;;;;;4997845;28;20045;-73
2021/04/29 02:11:14;;;;;;;18.50;9.38;;;8.50;70.80;;;;;;4999799;28;20475;-73
2021/04/29 02:13:45;;;;;;;12.25;8.32;;;8.50;71.10;;;;;;4999305;28;20026;-73
2021/04/29 02:16:15;;;;;;;16.10;8.80;;;8.50;71.20;;;;;;5002565;28;20406;-73
2021/04/29 02:18:49;;;;;;;15.52;8.00;;;8.50;71.50;;;;;;4994142;28;20482;-73
2021/04/29 02:21:16;;;;;;;13.57;9.20;;;8.40;71.60;;;;;;5002688;28;20034;-73
2021/04/29 02:23:45;;;;;;;17.42;9.68;;;8.40;71.90;;;;;;4998150;28;20381;-73
2021/04/29 02:26:13;;;;;;;13.30;8.27;;;8.40;72.20;;;;;;5000060;28;20022;-73
2021/04/29 02:28:39;;;;;;;12.75;8.25;;;8.40;72.20;;;;;;4993303;28;20034;-83
2021/04/29 02:31:05;;;;;;;14.05;9.05;;;8.40;72.10;;;;;;5004207;28;20486;-73
2021/04/29 02:33:31;;;;;;;12.98;8.25;;;8.40;72.20;;;;;;4993981;28;20044;-73
2021/04/29 02:35:57;;;;;;;13.57;8.55;;;8.30;72.20;;;;;;5002187;28;20022;-73
2021/04/29 02:38:23;;;;;;;14.57;9.23;;;8.30;72.40;;;;;;4992644;28;20033;-73
2021/04/29 02:40:49;;;;;;;15.73;9.68;;;8.20;72.60;;;;;;5000542;28;20466;-73
2021/04/29 02:43:17;;;;;;;19.42;9.82;;;8.20;72.90;;;;;;4996744;28;20067;-73
2021/04/29 02:45:44;;;;;;;16.48;9.90;;;8.10;73.50;;;;;;4994082;28;20022;-73
2021/04/29 02:48:10;;;;;;;15.65;9.85;;;8.10;73.80;;;;;;4991457;28;20042;-73
2021/04/29 02:50:37;;;;;;;16.95;9.38;;;8.00;74.10;;;;;;5001018;28;20105;-73
2021/04/29 02:53:04;;;;;;;14.10;9.63;;;8.00;74.40;;;;;;4996585;28;20058;-72
2021/04/29 02:55:29;;;;;;;19.80;8.98;;;8.00;74.90;;;;;;4994461;28;20037;-73
2021/04/29 02:58:03;;;;;;;13.35;8.82;;;8.00;74.90;;;;;;5003364;28;20022;-73
2021/04/29 03:00:29;;;;;;;14.98;9.43;;;8.00;74.80;;;;;;5006097;28;20386;-73
2021/04/29 03:02:55;;;;;;;15.27;9.32;;;8.00;74.90;;;;;;4998320;28;20022;-73
2021/04/29 03:05:21;;;;;;;17.92;9.95;;;8.00;75.00;;;;;;4992101;28;20034;-73
2021/04/29 03:07:46;;;;;;;17.85;9.80;;;8.00;75.10;;;;;;4993207;28;20101;-73
2021/04/29 03:10:12;;;;;;;23.10;9.75;;;8.00;75.40;;;;;;4997060;28;20051;-73
2021/04/29 03:12:39;;;;;;;16.80;9.57;;;8.00;75.70;;;;;;4998770;28;20034;-73
2021/04/29 03:15:08;;;;;;;17.77;10.15;;;8.00;76.10;;;;;;4997027;28;20049;-73
2021/04/29 03:17:33;;;;;;;15.50;10.15;;;8.00;76.10;;;;;;4996390;28;20034;-73
2021/04/29 03:19:59;;;;;;;18.02;10.70;;;8.00;76.50;;;;;;4992850;28;20374;-73
2021/04/29 03:22:25;;;;;;;19.50;11.15;;;8.10;76.60;;;;;;4996547;28;20053;-73
2021/04/29 03:24:51;;;;;;;14.73;9.23;;;8.10;77.00;;;;;;4990835;28;20077;-73
2021/04/29 03:27:17;;;;;;;19.17;10.95;;;8.10;76.90;;;;;;4993336;28;20031;-73
2021/04/29 03:29:43;;;;;;;15.38;10.63;;;8.10;76.90;;;;;;4993948;28;20032;-73
2021/04/29 03:32:08;;;;;;;19.98;11.60;;;8.10;77.20;;;;;;5000201;28;20034;-73
2021/04/29 03:34:34;;;;;;;15.77;9.60;;;8.10;77.50;;;;;;4997333;28;20088;-73
2021/04/29 03:37:00;;;;;;;18.85;10.88;;;8.10;77.80;;;;;;5002024;28;20077;-73
2021/04/29 03:39:25;;;;;;;21.35;11.48;;;8.10;78.50;;;;;;5001683;28;20027;-73
2021/04/29 03:41:51;;;;;;;21.45;12.10;;;8.10;78.50;;;;;;5000736;28;20489;-73
2021/04/29 03:44:16;;;;;;;23.83;11.77;;;8.10;78.50;;;;;;4998815;28;20030;-73
2021/04/29 03:46:42;;;;;;;18.48;11.10;;;8.10;78.60;;;;;;5001071;28;20026;-73
2021/04/29 03:49:08;;;;;;;17.75;11.88;;;8.00;79.10;;;;;;4998518;28;20117;-73
2021/04/29 03:51:33;;;;;;;20.85;12.52;;;7.90;79.40;;;;;;4996413;28;20030;-73
2021/04/29 03:53:59;;;;;;;22.40;12.20;;;7.80;80.30;;;;;;4997019;28;20073;-73
2021/04/29 03:56:24;;;;;;;19.20;12.48;;;7.70;80.80;;;;;;4989449;28;20064;-73
2021/04/29 03:58:50;;;;;;;24.70;12.68;;;7.60;81.80;;;;;;4995902;28;20069;-73
2021/04/29 04:01:15;;;;;;;23.20;14.07;;;7.50;83.30;;;;;;4998058;28;20023;-73
2021/04/29 04:03:41;;;;;;;24.17;13.80;;;7.50;83.90;;;;;;5000007;28;20032;-73
2021/04/29 04:06:07;;;;;;;23.00;13.32;;;7.50;83.60;;;;;;4998006;28;20053;-73
2021/04/29 04:08:32;;;;;;;27.80;15.63;;;7.40;83.70;;;;;;4999371;28;20049;-73
2021/04/29 04:10:58;;;;;;;18.90;11.60;;;7.50;84.00;;;;;;4994415;28;20030;-73
2021/04/29 04:13:23;;;;;;;21.73;13.55;;;7.50;84.20;;;;;;5004131;28;20120;-73
2021/04/29 04:15:49;;;;;;;19.38;12.85;;;7.50;84.70;;;;;;5003516;28;20029;-73
2021/04/29 04:18:15;;;;;;;22.55;13.60;;;7.50;85.10;;;;;;4999773;28;20367;-73
2021/04/29 04:20:41;;;;;;;20.35;13.25;;;7.50;85.20;;;;;;4997345;28;20026;-73
2021/04/29 04:23:07;;;;;;;22.27;12.45;;;7.60;85.40;;;;;;4993342;28;20109;-73
2021/04/29 04:25:33;;;;;;;23.58;13.63;;;7.60;85.90;;;;;;5003864;28;20034;-73
2021/04/29 04:27:59;;;;;;;21.48;13.75;;;7.60;86.30;;;;;;5001034;28;20034;-73
2021/04/29 04:30:25;;;;;;;24.38;13.52;;;7.60;86.30;;;;;;4998000;28;20481;-73
2021/04/29 04:32:50;;;;;;;22.05;13.70;;;7.60;86.10;;;;;;4999871;28;20045;-73
2021/04/29 04:35:16;;;;;;;21.40;13.65;;;7.60;86.90;;;;;;5002413;28;20026;-73
2021/04/29 04:37:42;;;;;;;23.35;14.25;;;7.60;87.00;;;;;;5010990;28;20533;-73
2021/04/29 04:40:09;;;;;;;23.13;15.57;;;7.60;87.30;;;;;;5007246;28;20026;-73
2021/04/29 04:42:34;;;;;;;23.70;15.05;;;7.60;88.00;;;;;;5004684;28;20481;-73
2021/04/29 04:45:00;;;;;;;23.70;15.25;;;7.60;88.20;;;;;;4998675;28;20044;-73
2021/04/29 04:47:26;;;;;;;24.38;16.33;;;7.60;89.10;;;;;;5002601;28;20101;-73
2021/04/29 04:49:51;;;;;;;28.25;17.15;;;7.60;88.30;;;;;;4997142;28;20424;-73
2021/04/29 04:52:17;;;;;;;25.08;15.70;;;7.60;88.60;;;;;;4996133;28;20498;-73
2021/04/29 04:54:43;;;;;;;23.65;16.13;;;7.60;89.00;;;;;;5001336;28;20034;-73
2021/04/29 04:57:10;;;;;;;25.95;17.90;;;7.70;89.10;;;;;;4998916;28;20369;-73
2021/04/29 04:59:36;;;;;;;26.40;16.63;;;7.70;89.00;;;;;;5008981;28;20033;-73
2021/04/29 05:02:02;;;;;;;22.95;15.60;;;7.60;88.90;;;;;;5003429;28;20018;-73
2021/04/29 05:04:28;;;;;;;24.70;16.83;;;7.60;88.90;;;;;;5008814;28;20067;-73
2021/04/29 05:06:55;;;;;;;26.08;16.02;;;7.70;88.90;;;;;;5006386;28;20105;-73
2021/04/29 05:09:20;;;;;;;24.55;16.63;;;7.70;89.00;;;;;;4999786;28;20033;-74
2021/04/29 05:11:46;;;;;;;24.58;16.50;;;7.70;89.00;;;;;;5003921;28;20461;-73
2021/04/29 05:14:11;;;;;;;28.05;17.92;;;7.70;89.30;;;;;;4998179;28;20448;-73
2021/04/29 05:16:37;;;;;;;27.25;17.80;;;7.80;89.40;;;;;;5002300;28;20162;-73
2021/04/29 05:19:03;;;;;;;24.83;16.90;;;7.90;89.40;;;;;;5001485;28;20033;-73
2021/04/29 05:21:28;;;;;;;27.17;18.45;;;7.90;89.60;;;;;;5002125;28;20374;-73
2021/04/29 05:23:54;;;;;;;25.58;16.73;;;8.00;89.40;;;;;;4996398;28;20053;-73
2021/04/29 05:26:20;;;;;;;23.55;17.10;;;8.10;89.30;;;;;;4996277;28;20030;-73
2021/04/29 05:28:45;;;;;;;26.88;19.10;;;8.20;89.30;;;;;;5000456;28;20466;-74
2021/04/29 05:31:11;;;;;;;30.85;19.15;;;8.30;89.20;;;;;;4997409;28;20038;-73
2021/04/29 05:33:36;;;;;;;30.95;19.30;;;8.30;89.10;;;;;;4996971;28;20038;-73
2021/04/29 05:36:02;;;;;;;27.83;17.13;;;8.40;89.00;;;;;;4998421;28;20022;-73
2021/04/29 05:38:27;;;;;;;27.13;19.80;;;8.40;89.30;;;;;;5001242;28;20040;-73
2021/04/29 05:40:53;;;;;;;25.75;18.17;;;8.50;88.80;;;;;;5001405;28;20388;-73
2021/04/29 05:43:18;;;;;;;25.45;18.30;;;8.50;88.70;;;;;;5007534;28;20452;-73
2021/04/29 05:45:44;;;;;;;27.75;18.25;;;8.50;88.70;;;;;;5004684;28;20090;-73
2021/04/29 05:48:10;;;;;;;28.25;18.83;;;8.50;88.60;;;;;;5003955;28;20054;-73
2021/04/29 05:50:35;;;;;;;30.25;18.65;;;8.50;88.60;;;;;;5003697;28;20101;-73
2021/04/29 05:53:01;;;;;;;27.88;18.23;;;8.50;88.60;;;;;;5002322;28;20091;-72
2021/04/29 05:55:26;;;;;;;24.58;16.33;;;8.50;88.70;;;;;;4999103;28;20025;-73
2021/04/29 05:57:55;;;;;;;24.63;17.02;;;8.50;88.70;;;;;;4997296;28;20109;-73
2021/04/29 06:00:20;;;;;;;31.08;18.65;;;8.50;88.80;;;;;;4998176;28;20105;-72
2021/04/29 06:02:47;;;;;;;27.23;18.48;;;8.50;89.00;;;;;;5002940;28;20545;-72
2021/04/29 06:05:12;;;;;;;32.03;21.15;;;8.60;89.20;;;;;;5001416;28;20031;-73
2021/04/29 06:07:38;;;;;;;29.65;20.02;;;8.70;89.60;;;;;;5001796;28;20033;-73
2021/04/29 06:10:04;;;;;;;32.88;19.90;;;8.80;89.90;;;;;;5002833;28;20022;-73
2021/04/29 06:12:29;;;;;;;34.38;21.38;;;8.80;90.00;;;;;;5000953;28;20064;-72
2021/04/29 06:14:55;;;;;;;25.83;18.33;;;9.00;90.00;;;;;;5000646;28;20021;-72
2021/04/29 06:17:20;;;;;;;25.65;18.83;;;9.00;89.80;;;;;;5004846;28;20095;-72
2021/04/29 06:19:46;;;;;;;25.58;19.35;;;9.00;90.30;;;;;;5002821;28;20113;-71
2021/04/29 06:22:12;;;;;;;31.15;20.48;;;9.00;90.10;;;;;;5001725;28;20428;-73
2021/04/29 06:24:37;;;;;;;28.02;19.70;;;9.10;90.40;;;;;;4994204;28;20041;-74
2021/04/29 06:27:03;;;;;;;26.80;18.80;;;9.10;90.50;;;;;;4995108;28;20113;-73
2021/04/29 06:29:29;;;;;;;28.13;18.52;;;9.20;90.20;;;;;;4997509;28;20037;-73
2021/04/29 06:31:54;;;;;;;31.05;19.65;;;9.20;90.20;;;;;;4995097;28;20433;-74
2021/04/29 06:34:20;;;;;;;29.77;22.00;;;9.30;90.20;;;;;;4997314;28;20041;-74
2021/04/29 06:36:45;;;;;;;28.75;19.88;;;9.30;90.30;;;;;;4993921;28;20054;-73
2021/04/29 06:39:12;;;;;;;27.83;20.55;;;9.30;90.20;;;;;;4995849;28;20525;-74
2021/04/29 06:41:37;;;;;;;30.95;21.20;;;9.40;90.30;;;;;;4996220;28;20493;-74
2021/04/29 06:44:03;;;;;;;33.92;21.70;;;9.40;90.30;;;;;;4991223;28;21432;-73
2021/04/29 06:46:29;;;;;;;27.70;18.55;;;9.50;90.30;;;;;;4996275;28;20045;-74
2021/04/29 06:48:58;;;;;;;27.55;19.55;;;9.50;90.30;;;;;;4996824;28;20050;-74
2021/04/29 06:51:24;;;;;;;27.08;18.67;;;9.50;90.30;;;;;;4993051;28;20034;-73
2021/04/29 06:53:49;;;;;;;31.08;22.02;;;9.50;90.40;;;;;;4999614;28;20045;-73
2021/04/29 06:56:18;;;;;;;35.03;21.98;;;9.50;90.40;;;;;;4996926;28;20397;-73
2021/04/29 06:58:44;;;;;;;28.17;21.17;;;9.60;90.40;;;;;;5001176;28;20067;-75
2021/04/29 07:01:10;;;;;;;29.95;21.45;;;9.60;90.60;;;;;;4995373;28;20089;-73
2021/04/29 07:03:35;;;;;;;28.33;20.60;;;9.70;90.50;;;;;;4999583;28;20033;-74
2021/04/29 07:06:01;;;;;;;31.60;22.35;;;9.70;90.50;;;;;;5001263;28;20029;-74
2021/04/29 07:08:27;;;;;;;31.42;22.30;;;9.70;90.40;;;;;;4994366;28;20042;-73
2021/04/29 07:10:52;;;;;;;32.92;22.10;;;9.80;90.40;;;;;;5002921;28;20041;-75
2021/04/29 07:13:18;;;;;;;35.22;23.35;;;9.90;90.20;;;;;;4992578;28;20038;-73
2021/04/29 07:15:44;;;;;;;29.92;21.33;;;9.90;90.20;;;;;;4999270;28;20445;-74
2021/04/29 07:18:11;;;;;;;29.45;22.35;;;9.90;90.20;;;;;;4998372;28;20187;-74
2021/04/29 07:20:37;;;;;;;35.25;23.15;;;9.90;90.10;;;;;;5004119;28;20018;-74
2021/04/29 07:23:04;;;;;;;32.05;22.25;;;9.90;90.10;;;;;;5006699;28;20026;-73
2021/04/29 07:25:30;;;;;;;31.35;22.02;;;9.90;90.20;;;;;;5003560;28;20022;-74
2021/04/29 07:27:56;;;;;;;33.92;22.65;;;9.90;90.20;;;;;;5006419;28;20067;-74
2021/04/29 07:30:22;;;;;;;26.67;18.40;;;9.90;90.20;;;;;;4995058;28;20096;-74
2021/04/29 07:32:47;;;;;;;28.02;20.02;;;10.00;90.10;;;;;;4994798;28;20050;-74
2021/04/29 07:35:14;;;;;;;27.48;19.30;;;9.90;90.00;;;;;;5002594;28;20031;-74
2021/04/29 07:37:39;;;;;;;30.13;21.20;;;9.80;90.10;;;;;;5005823;28;20033;-74
2021/04/29 07:40:05;;;;;;;26.75;20.70;;;9.70;90.20;;;;;;4996308;28;20423;-74
2021/04/29 07:42:31;;;;;;;31.83;21.98;;;9.60;90.30;;;;;;4998764;28;20030;-74
2021/04/29 07:44:57;;;;;;;29.13;20.75;;;9.60;90.40;;;;;;4999522;28;20022;-74
2021/04/29 07:47:23;;;;;;;30.88;21.23;;;9.60;90.40;;;;;;4999534;28;20050;-74
2021/04/29 07:49:49;;;;;;;32.00;22.23;;;9.60;90.50;;;;;;5001356;28;20107;-74
2021/04/29 07:52:15;;;;;;;32.45;23.10;;;9.60;90.50;;;;;;5004469;28;20073;-74
2021/04/29 07:54:40;;;;;;;31.65;22.00;;;9.60;90.50;;;;;;5001652;28;20034;-74
2021/04/29 07:57:06;;;;;;;30.52;21.33;;;9.60;90.50;;;;;;5002632;28;20022;-74
2021/04/29 07:59:31;;;;;;;30.40;21.02;;;9.70;90.50;;;;;;5000792;28;20125;-74
2021/04/29 08:01:57;;;;;;;27.88;20.10;;;9.80;90.40;;;;;;5000144;28;20078;-74
2021/04/29 08:04:23;;;;;;;29.85;19.85;;;9.80;90.30;;;;;;4996988;28;20032;-74
2021/04/29 08:06:49;;;;;;;26.23;19.45;;;9.80;90.20;;;;;;4997114;28;20030;-73
2021/04/29 08:09:14;;;;;;;28.48;19.52;;;9.80;90.10;;;;;;5000472;28;20037;-74
2021/04/29 08:11:40;;;;;;;30.15;20.27;;;9.70;90.10;;;;;;4998679;28;20033;-74
2021/04/29 08:14:06;;;;;;;29.45;19.10;;;9.70;90.10;;;;;;5001122;28;20038;-74
2021/04/29 08:16:31;;;;;;;26.08;19.83;;;9.70;90.00;;;;;;4998794;28;20087;-74
2021/04/29 08:18:58;;;;;;;28.13;18.73;;;9.60;90.00;;;;;;5015189;28;20057;-74
2021/04/29 08:21:23;;;;;;;27.10;18.23;;;9.60;90.00;;;;;;4998169;28;20065;-74
2021/04/29 08:23:49;;;;;;;25.55;18.13;;;9.50;89.90;;;;;;5009781;28;20062;-74
2021/04/29 08:26:15;;;;;;;26.02;18.70;;;9.40;90.00;;;;;;5011117;28;20018;-75
2021/04/29 08:28:40;;;;;;;28.13;20.20;;;9.40;90.10;;;;;;5009014;28;20037;-75
2021/04/29 08:31:07;;;;;;;24.05;18.30;;;9.40;90.10;;;;;;5004117;28;20033;-75
2021/04/29 08:33:33;;;;;;;27.08;18.77;;;9.40;90.20;;;;;;5004614;28;20035;-74
2021/04/29 08:35:59;;;;;;;24.80;18.60;;;9.30;90.20;;;;;;5002695;28;20121;-74
2021/04/29 08:38:24;;;;;;;25.88;18.85;;;9.30;90.20;;;;;;5008040;28;20113;-74
2021/04/29 08:40:50;;;;;;;28.95;19.30;;;9.30;90.20;;;;;;5006874;28;20044;-74
2021/04/29 08:43:17;;;;;;;25.42;18.33;;;9.40;90.30;;;;;;4995791;28;20041;-74
2021/04/29 08:45:45;;;;;;;26.60;18.98;;;9.40;90.20;;;;;;4999193;28;20059;-74
2021/04/29 08:48:16;;;;;;;27.88;18.38;;;9.40;90.10;;;;;;5010771;28;20046;-75
2021/04/29 08:50:42;;;;;;;23.02;17.33;;;9.40;90.20;;;;;;5006555;28;20101;-74
2021/04/29 08:53:07;;;;;;;26.35;18.00;;;9.50;90.10;;;;;;5006116;28;20192;-74
2021/04/29 08:55:36;;;;;;;32.75;20.83;;;9.50;90.10;;;;;;5007651;28;20029;-74
2021/04/29 08:58:03;;;;;;;31.35;20.88;;;9.50;90.20;;;;;;5009212;28;20032;-74
2021/04/29 09:00:30;;;;;;;32.13;20.63;;;9.50;90.20;;;;;;5012811;28;20097;-74
2021/04/29 09:02:56;;;;;;;30.80;21.25;;;9.40;90.20;;;;;;5010669;28;20026;-74
2021/04/29 09:05:33;;;;;;;27.27;20.70;;;9.40;90.30;;;;;;5004978;28;20026;-74
2021/04/29 09:08:17;;;;;;;30.02;21.42;;;9.40;90.50;;;;;;5017548;28;20064;-74
2021/04/29 09:10:44;;;;;;;28.85;20.27;;;9.40;90.50;;;;;;5006765;28;20055;-74
2021/04/29 09:13:13;;;;;;;30.40;20.85;;;9.40;90.50;;;;;;5006600;28;20038;-74
2021/04/29 09:15:39;;;;;;;27.63;20.63;;;9.30;90.60;;;;;;4999554;28;20072;-74
2021/04/29 09:18:17;;;;;;;26.35;19.73;;;9.40;90.70;;;;;;5005801;28;20049;-74
2021/04/29 09:20:54;;;;;;;31.90;20.02;;;9.40;90.80;;;;;;5010142;28;20398;-73
2021/04/29 09:23:25;;;;;;;27.20;19.80;;;9.60;90.90;;;;;;5001328;28;20038;-74
2021/04/29 09:26:05;;;;;;;26.45;17.85;;;9.60;90.70;;;;;;5006995;28;20033;-74
2021/04/29 09:28:41;;;;;;;25.83;19.40;;;9.60;90.60;;;;;;5004879;28;20025;-74
2021/04/29 09:31:25;;;;;;;23.13;17.52;;;9.60;90.60;;;;;;5005607;28;20105;-74
2021/04/29 09:33:58;;;;;;;27.08;18.73;;;9.60;90.50;;;;;;5002145;28;20048;-74
2021/04/29 09:36:31;;;;;;;30.77;18.88;;;9.60;90.40;;;;;;5005858;28;20032;-73
2021/04/29 09:38:57;;;;;;;22.15;16.83;;;9.60;90.40;;;;;;5009171;28;20394;-73
2021/04/29 09:41:31;;;;;;;27.45;19.20;;;9.50;90.50;;;;;;4996986;28;20424;-73
2021/04/29 09:44:07;;;;;;;24.83;17.70;;;9.60;90.60;;;;;;5003293;28;20488;-73
2021/04/29 09:46:44;;;;;;;21.33;15.40;;;9.60;90.40;;;;;;5000089;28;20049;-74
2021/04/29 09:49:32;;;;;;;28.85;17.70;;;9.60;90.40;;;;;;4997856;28;20088;-74
2021/04/29 09:52:04;;;;;;;28.35;18.65;;;9.60;90.40;;;;;;5005712;28;20061;-73
2021/04/29 09:54:34;;;;;;;23.33;16.58;;;9.60;90.40;;;;;;4996872;28;20034;-74
2021/04/29 09:57:02;;;;;;;22.17;14.65;;;9.50;90.30;;;;;;5003046;28;20428;-74
2021/04/29 09:59:29;;;;;;;28.08;18.88;;;9.50;90.20;;;;;;5000408;28;20026;-74
2021/04/29 10:01:56;;;;;;;26.98;19.30;;;9.40;90.30;;;;;;5000170;28;20019;-73
2021/04/29 10:04:27;;;;;;;28.90;18.33;;;9.40;90.30;;;;;;5000942;28;20038;-73
2021/04/29 10:06:59;;;;;;;25.52;18.58;;;9.40;90.30;;;;;;5005086;28;20041;-73
2021/04/29 10:09:28;;;;;;;28.58;19.08;;;9.40;90.30;;;;;;5002930;28;20398;-73
2021/04/29 10:11:57;;;;;;;26.30;17.80;;;9.40;90.40;;;;;;5001818;28;20026;-73
2021/04/29 10:14:25;;;;;;;26.15;18.17;;;9.40;90.40;;;;;;4996024;28;20041;-74
2021/04/29 10:16:51;;;;;;;24.10;17.00;;;9.40;90.30;;;;;;4999910;28;20022;-73
2021/04/29 10:19:17;;;;;;;26.05;16.77;;;9.40;90.40;;;;;;4999786;28;20406;-73
2021/04/29 10:21:43;;;;;;;28.67;17.08;;;9.40;90.50;;;;;;5002609;28;20034;-73
2021/04/29 10:24:10;;;;;;;26.38;17.50;;;9.30;90.60;;;;;;5003878;28;20041;-73
2021/04/29 10:26:37;;;;;;;27.73;19.27;;;9.30;90.60;;;;;;4995415;28;20026;-73
2021/04/29 10:29:07;;;;;;;27.85;18.45;;;9.30;90.80;;;;;;5000226;28;20026;-74
2021/04/29 10:31:35;;;;;;;23.70;16.73;;;9.30;90.90;;;;;;4999983;28;20038;-73
2021/04/29 10:34:03;;;;;;;24.38;17.42;;;9.20;91.00;;;;;;4998059;28;20035;-73
2021/04/29 10:36:37;;;;;;;27.95;18.02;;;9.10;91.10;;;;;;4997841;28;20429;-73
2021/04/29 10:39:22;;;;;;;30.65;18.42;;;9.00;91.30;;;;;;4998308;28;20808;-73
2021/04/29 10:42:09;;;;;;;31.92;19.23;;;8.90;91.60;;;;;;4995683;28;20047;-74
2021/04/29 10:44:45;;;;;;;28.40;18.30;;;8.70;92.20;;;;;;4998683;28;20034;-73
2021/04/29 10:47:24;;;;;;;31.40;19.05;;;8.60;92.30;;;;;;5002318;28;20087;-73
2021/04/29 10:49:52;;;;;;;28.85;19.20;;;8.40;92.40;;;;;;4996733;28;20117;-74
2021/04/29 10:52:17;;;;;;;29.50;20.17;;;8.30;92.80;;;;;;5002168;28;20022;-73
2021/04/29 10:54:53;;;;;;;27.65;17.80;;;8.30;93.00;;;;;;5002663;28;20137;-73
2021/04/29 10:57:19;;;;;;;26.73;18.33;;;8.20;93.20;;;;;;4994363;28;20022;-72
2021/04/29 10:59:51;;;;;;;26.60;17.95;;;8.10;93.40;;;;;;4990766;28;20022;-73
2021/04/29 11:02:36;;;;;;;30.92;21.02;;;8.10;93.70;;;;;;4998017;28;20031;-73
2021/04/29 11:05:04;;;;;;;31.10;19.83;;;8.00;93.80;;;;;;5000456;28;20030;-73
2021/04/29 11:07:31;;;;;;;29.00;18.83;;;8.00;94.10;;;;;;4996699;28;20050;-73
2021/04/29 11:10:08;;;;;;;28.13;19.75;;;7.90;94.10;;;;;;4998140;28;20097;-72
2021/04/29 11:12:45;;;;;;;29.35;19.45;;;7.80;94.40;;;;;;4997134;28;20026;-73
2021/04/29 11:15:33;;;;;;;36.72;21.85;;;7.80;94.60;;;;;;5001945;28;20034;-72
2021/04/29 11:18:19;;;;;;;30.35;19.58;;;7.70;94.70;;;;;;5004094;28;20029;-73
2021/04/29 11:20:46;;;;;;;35.00;21.50;;;7.50;94.80;;;;;;5007347;28;20029;-73
2021/04/29 11:23:13;;;;;;;30.08;19.45;;;7.40;95.00;;;;;;5004542;28;20026;-73
2021/04/29 11:25:39;;;;;;;32.72;21.33;;;7.40;95.10;;;;;;5007133;28;20479;-73
2021/04/29 11:28:05;;;;;;;32.70;20.40;;;7.30;95.10;;;;;;5005090;28;20046;-72
2021/04/29 11:30:31;;;;;;;35.42;21.65;;;7.20;95.10;;;;;;5006187;28;20033;-72
2021/04/29 11:33:04;;;;;;;35.58;22.63;;;7.10;95.20;;;;;;5007557;28;20038;-73
2021/04/29 11:35:35;;;;;;;34.60;20.88;;;7.10;95.30;;;;;;5006007;28;20115;-73
2021/04/29 11:38:02;;;;;;;38.00;20.27;;;7.00;95.50;;;;;;5007506;28;20114;-73
2021/04/29 11:40:30;;;;;;;32.40;21.67;;;7.00;95.50;;;;;;4996682;28;20054;-73
2021/04/29 11:42:58;;;;;;;31.77;21.02;;;7.00;95.60;;;;;;4998906;28;20104;-72
2021/04/29 11:45:29;;;;;;;31.92;17.88;;;6.90;95.60;;;;;;5007089;28;20018;-72
2021/04/29 11:48:12;;;;;;;35.17;19.02;;;6.90;95.70;;;;;;5001539;28;20401;-72
2021/04/29 11:51:07;;;;;;;;;;;6.80;95.80;;;;;;4997598;28;20478;-72
2021/04/29 11:53:35;;;;;;;38.45;22.40;;;6.70;95.90;;;;;;5001004;28;19940;-73
2021/04/29 11:56:06;;;;;;;37.78;22.83;;;6.70;95.90;;;;;;4993615;28;20042;-73
2021/04/29 11:58:33;;;;;;;38.35;23.50;;;6.60;96.00;;;;;;4993130;28;20492;-72
2021/04/29 12:00:59;;;;;;;33.20;22.42;;;6.60;96.10;;;;;;4998303;28;20105;-72
2021/04/29 12:03:26;;;;;;;32.53;20.00;;;6.60;95.90;;;;;;4995732;28;20034;-73
2021/04/29 12:05:58;;;;;;;33.63;20.40;;;6.50;95.90;;;;;;4994602;28;20033;-73
2021/04/29 12:08:26;;;;;;;31.25;22.45;;;6.50;96.00;;;;;;4998762;28;20038;-72
2021/04/29 12:11:01;;;;;;;32.83;22.42;;;6.50;96.00;;;;;;4995201;28;20397;-72
2021/04/29 12:13:34;;;;;;;32.25;21.35;;;6.40;95.90;;;;;;4998079;28;20034;-73
2021/04/29 12:16:02;;;;;;;30.30;20.52;;;6.40;96.10;;;;;;5006791;28;20099;-74
2021/04/29 12:18:28;;;;;;;22.17;14.07;;;6.40;96.10;;;;;;4999781;28;20030;-73
2021/04/29 12:20:55;;;;;;;26.73;18.83;;;6.40;96.20;;;;;;4998875;28;20018;-72
2021/04/29 12:23:20;;;;;;;23.02;16.58;;;6.30;96.10;;;;;;5000223;28;20038;-72
2021/04/29 12:25:57;;;;;;;26.05;17.08;;;6.30;96.10;;;;;;5004501;28;20075;-72
2021/04/29 12:28:35;;;;;;;21.88;15.48;;;6.40;96.10;;;;;;4997876;28;20021;-72
2021/04/29 12:31:17;;;;;;;22.67;16.52;;;6.30;96.00;;;;;;5000700;28;20050;-73
2021/04/29 12:34:06;;;;;;;18.73;13.27;;;6.40;95.90;;;;;;5003759;28;20485;-73
2021/04/29 12:36:47;;;;;;;19.00;12.77;;;6.40;95.90;;;;;;5004859;28;20045;-73
2021/04/29 12:39:13;;;;;;;18.20;13.20;;;6.40;95.80;;;;;;5006627;28;20026;-73
2021/04/29 12:41:39;;;;;;;19.77;13.10;;;6.40;95.60;;;;;;5008174;28;20546;-73
2021/04/29 12:44:05;;;;;;;18.77;13.45;;;6.40;95.50;;;;;;5012209;28;20083;-73